DLH03H EDDF-LPPT
Flight info
| Callsign | DLH03H |
|---|---|
| Flight time | 2h 43m |
| Altitude | 35000 |
| Route | SOBRA2L/18 SOBRA Y180 DIK UN857 TOLVU DCT RAPOR/N0451F350 DCT GIMER DCT ESTOC UT300 PON UN872 GODIX/N0441F310 UN872 DIDAK/N0448F350 UN872 ERIGA UZ218 FUJTI DCT ATLEN DCT ABUPI DCT XAMAX |
| Aircraft | A321/M-SDE3FGHIRWY/LB1 |
Departure
| Time | 2026-05-06 16:00 |
|---|---|
| Airport | Frankfurt Main Airport (EDDF) |
Arrival
| Time | 2026-05-06 18:44 |
|---|---|
| Airport | Lisbon Humberto Delgado Airport (LPPT) |
| Time | Latitude | Longitude | Altitude | Speed | Heading |
|---|---|---|---|---|---|
| 2026-05-06 15:23 | 50.04882 | 8.57159 | 346 ft | 0 kts | 159° |
| 2026-05-06 15:51 | 50.04881 | 8.57159 | 318 ft | 0 kts | 162° |
| 2026-05-06 15:51 | 50.04869 | 8.57147 | 356 ft | 5 kts | 220° |
| 2026-05-06 15:52 | 50.04836 | 8.57068 | 351 ft | 11 kts | 220° |
| 2026-05-06 15:52 | 50.04770 | 8.57020 | 352 ft | 11 kts | 204° |
| 2026-05-06 15:52 | 50.04691 | 8.56964 | 354 ft | 15 kts | 204° |
| 2026-05-06 15:52 | 50.04595 | 8.56908 | 345 ft | 14 kts | 194° |
| 2026-05-06 15:53 | 50.04509 | 8.56877 | 345 ft | 12 kts | 193° |
| 2026-05-06 15:53 | 50.04447 | 8.56800 | 351 ft | 13 kts | 248° |
| 2026-05-06 15:53 | 50.04416 | 8.56669 | 346 ft | 12 kts | 249° |
| 2026-05-06 15:53 | 50.04387 | 8.56548 | 350 ft | 12 kts | 249° |
| 2026-05-06 15:54 | 50.04354 | 8.56408 | 353 ft | 15 kts | 249° |
| 2026-05-06 15:54 | 50.04312 | 8.56234 | 347 ft | 18 kts | 249° |
| 2026-05-06 15:54 | 50.04266 | 8.56038 | 353 ft | 19 kts | 250° |
| 2026-05-06 15:54 | 50.04218 | 8.55841 | 351 ft | 19 kts | 250° |
| 2026-05-06 15:55 | 50.04172 | 8.55649 | 347 ft | 19 kts | 249° |
| 2026-05-06 15:55 | 50.04128 | 8.55462 | 347 ft | 18 kts | 249° |
| 2026-05-06 15:55 | 50.04085 | 8.55285 | 350 ft | 18 kts | 249° |
| 2026-05-06 15:55 | 50.04033 | 8.55066 | 351 ft | 24 kts | 250° |
| 2026-05-06 15:56 | 50.03970 | 8.54805 | 351 ft | 26 kts | 249° |
| 2026-05-06 15:56 | 50.03912 | 8.54568 | 349 ft | 21 kts | 249° |
| 2026-05-06 15:56 | 50.03861 | 8.54376 | 353 ft | 18 kts | 237° |
| 2026-05-06 15:56 | 50.03801 | 8.54219 | 356 ft | 18 kts | 248° |
| 2026-05-06 15:57 | 50.03753 | 8.54020 | 345 ft | 20 kts | 250° |
| 2026-05-06 15:57 | 50.03706 | 8.53822 | 349 ft | 19 kts | 249° |
| 2026-05-06 15:57 | 50.03658 | 8.53633 | 350 ft | 19 kts | 247° |
| 2026-05-06 15:57 | 50.03612 | 8.53446 | 350 ft | 18 kts | 249° |
| 2026-05-06 15:58 | 50.03567 | 8.53260 | 351 ft | 18 kts | 250° |
| 2026-05-06 15:58 | 50.03523 | 8.53074 | 347 ft | 18 kts | 249° |
| 2026-05-06 15:58 | 50.03477 | 8.52888 | 347 ft | 19 kts | 247° |
| 2026-05-06 15:58 | 50.03427 | 8.52703 | 352 ft | 18 kts | 248° |
| 2026-05-06 15:59 | 50.03383 | 8.52603 | 348 ft | 11 kts | 206° |
| 2026-05-06 15:59 | 50.03351 | 8.52596 | 345 ft | 0 kts | 179° |
| 2026-05-06 15:59 | 50.03346 | 8.52596 | 345 ft | 3 kts | 179° |
| 2026-05-06 16:00 | 50.02942 | 8.52599 | 346 ft | 90 kts | 180° |
| 2026-05-06 16:00 | 50.02102 | 8.52605 | 350 ft | 149 kts | 180° |
| 2026-05-06 16:00 | 50.00903 | 8.52610 | 406 ft | 188 kts | 180° |
| 2026-05-06 16:00 | 49.99609 | 8.52620 | 1109 ft | 187 kts | 181° |
| 2026-05-06 16:01 | 49.98724 | 8.52672 | 1605 ft | 191 kts | 179° |
| 2026-05-06 16:01 | 49.97322 | 8.52771 | 1931 ft | 213 kts | 180° |
| 2026-05-06 16:01 | 49.95788 | 8.52875 | 2344 ft | 233 kts | 180° |
| 2026-05-06 16:01 | 49.94168 | 8.52994 | 3083 ft | 230 kts | 181° |
| 2026-05-06 16:02 | 49.92581 | 8.53117 | 3801 ft | 228 kts | 181° |
| 2026-05-06 16:02 | 49.91004 | 8.53235 | 4390 ft | 227 kts | 180° |
| 2026-05-06 16:02 | 49.89419 | 8.53348 | 4929 ft | 229 kts | 180° |
| 2026-05-06 16:02 | 49.87820 | 8.53429 | 5455 ft | 230 kts | 186° |
| 2026-05-06 16:03 | 49.86255 | 8.52889 | 5847 ft | 237 kts | 202° |
| 2026-05-06 16:03 | 49.84669 | 8.51990 | 6158 ft | 246 kts | 202° |
| 2026-05-06 16:03 | 49.83014 | 8.51053 | 6444 ft | 261 kts | 202° |
| 2026-05-06 16:03 | 49.81290 | 8.50080 | 6949 ft | 266 kts | 201° |
| 2026-05-06 16:04 | 49.79542 | 8.49093 | 7534 ft | 269 kts | 201° |
| 2026-05-06 16:04 | 49.77830 | 8.47913 | 8114 ft | 270 kts | 216° |
| 2026-05-06 16:04 | 49.76543 | 8.45823 | 8725 ft | 271 kts | 240° |
| 2026-05-06 16:04 | 49.75944 | 8.43059 | 9423 ft | 274 kts | 264° |
| 2026-05-06 16:05 | 49.76126 | 8.40105 | 10057 ft | 285 kts | 281° |
| 2026-05-06 16:05 | 49.76606 | 8.37007 | 10226 ft | 307 kts | 282° |
| 2026-05-06 16:05 | 49.77144 | 8.33687 | 10357 ft | 330 kts | 283° |
| 2026-05-06 16:05 | 49.77723 | 8.30158 | 10677 ft | 343 kts | 283° |
| 2026-05-06 16:06 | 49.78315 | 8.26564 | 11282 ft | 347 kts | 283° |
| 2026-05-06 16:06 | 49.78912 | 8.22917 | 11948 ft | 351 kts | 283° |
| 2026-05-06 16:06 | 49.79513 | 8.19229 | 12570 ft | 356 kts | 282° |
| 2026-05-06 16:06 | 49.80115 | 8.15491 | 13207 ft | 359 kts | 282° |
| 2026-05-06 16:07 | 49.80715 | 8.11733 | 13842 ft | 360 kts | 282° |
| 2026-05-06 16:07 | 49.81310 | 8.07969 | 14348 ft | 363 kts | 283° |
| 2026-05-06 16:07 | 49.81916 | 8.04143 | 14833 ft | 367 kts | 282° |
| 2026-05-06 16:07 | 49.82523 | 8.00292 | 15291 ft | 370 kts | 282° |
| 2026-05-06 16:08 | 49.83135 | 7.96409 | 15721 ft | 373 kts | 282° |
| 2026-05-06 16:08 | 49.83754 | 7.92481 | 16192 ft | 377 kts | 282° |
| 2026-05-06 16:08 | 49.84376 | 7.88527 | 16688 ft | 379 kts | 282° |
| 2026-05-06 16:08 | 49.85000 | 7.84544 | 17166 ft | 383 kts | 282° |
| 2026-05-06 16:09 | 49.85627 | 7.80518 | 17685 ft | 385 kts | 281° |
| 2026-05-06 16:09 | 49.86247 | 7.76514 | 18123 ft | 389 kts | 281° |
| 2026-05-06 16:09 | 49.86883 | 7.72421 | 18528 ft | 392 kts | 282° |
| 2026-05-06 16:09 | 49.87526 | 7.68306 | 18947 ft | 393 kts | 282° |
| 2026-05-06 16:10 | 49.88169 | 7.64187 | 19344 ft | 394 kts | 282° |
| 2026-05-06 16:10 | 49.88814 | 7.60046 | 19727 ft | 397 kts | 282° |
| 2026-05-06 16:10 | 49.89463 | 7.55871 | 20117 ft | 398 kts | 282° |
| 2026-05-06 16:10 | 49.90112 | 7.51682 | 20486 ft | 400 kts | 282° |
| 2026-05-06 16:11 | 49.90761 | 7.47472 | 20880 ft | 402 kts | 282° |
| 2026-05-06 16:11 | 49.91411 | 7.43243 | 21248 ft | 404 kts | 282° |
| 2026-05-06 16:11 | 49.92061 | 7.38994 | 21595 ft | 406 kts | 282° |
| 2026-05-06 16:11 | 49.92711 | 7.34720 | 21986 ft | 408 kts | 282° |
| 2026-05-06 16:12 | 49.93362 | 7.30412 | 22333 ft | 411 kts | 282° |
| 2026-05-06 16:12 | 49.94013 | 7.26077 | 22738 ft | 411 kts | 282° |
| 2026-05-06 16:12 | 49.94663 | 7.21749 | 23147 ft | 412 kts | 282° |
| 2026-05-06 16:12 | 49.95306 | 7.17465 | 23501 ft | 413 kts | 282° |
| 2026-05-06 16:13 | 49.95959 | 7.13105 | 23807 ft | 415 kts | 282° |
| 2026-05-06 16:13 | 49.96616 | 7.08726 | 24134 ft | 418 kts | 282° |
| 2026-05-06 16:13 | 49.97278 | 7.04314 | 24470 ft | 420 kts | 282° |
| 2026-05-06 16:13 | 49.97939 | 6.99875 | 24774 ft | 423 kts | 281° |
| 2026-05-06 16:14 | 49.98599 | 6.95412 | 25039 ft | 425 kts | 281° |
| 2026-05-06 16:14 | 49.99130 | 6.90902 | 25364 ft | 423 kts | 274° |
| 2026-05-06 16:14 | 49.99214 | 6.86338 | 25723 ft | 422 kts | 265° |
| 2026-05-06 16:14 | 49.99072 | 6.81759 | 26011 ft | 426 kts | 265° |
| 2026-05-06 16:15 | 49.98933 | 6.77146 | 26293 ft | 428 kts | 265° |
| 2026-05-06 16:15 | 49.98796 | 6.72513 | 26563 ft | 430 kts | 265° |
| 2026-05-06 16:15 | 49.98658 | 6.67858 | 26832 ft | 432 kts | 265° |
| 2026-05-06 16:15 | 49.98519 | 6.63180 | 27100 ft | 434 kts | 265° |
| 2026-05-06 16:16 | 49.98270 | 6.58499 | 27357 ft | 434 kts | 258° |
| 2026-05-06 16:16 | 49.97576 | 6.53936 | 27616 ft | 434 kts | 250° |
| 2026-05-06 16:16 | 49.96464 | 6.49581 | 27881 ft | 434 kts | 244° |
| 2026-05-06 16:16 | 49.95266 | 6.45325 | 28183 ft | 436 kts | 244° |
| 2026-05-06 16:17 | 49.94049 | 6.41004 | 28451 ft | 438 kts | 244° |
| 2026-05-06 16:17 | 49.92827 | 6.36661 | 28722 ft | 439 kts | 244° |
| 2026-05-06 16:17 | 49.91605 | 6.32314 | 28964 ft | 441 kts | 245° |
| 2026-05-06 16:17 | 49.90377 | 6.27944 | 29189 ft | 442 kts | 245° |
| 2026-05-06 16:18 | 49.89122 | 6.23583 | 29400 ft | 443 kts | 244° |
| 2026-05-06 16:18 | 49.87861 | 6.19226 | 29708 ft | 442 kts | 244° |
| 2026-05-06 16:18 | 49.86612 | 6.14884 | 30009 ft | 441 kts | 242° |
| 2026-05-06 16:18 | 49.85096 | 6.10763 | 30249 ft | 439 kts | 234° |
| 2026-05-06 16:19 | 49.83350 | 6.06890 | 30485 ft | 438 kts | 233° |
| 2026-05-06 16:19 | 49.81590 | 6.03039 | 30708 ft | 438 kts | 233° |
| 2026-05-06 16:19 | 49.79830 | 5.99212 | 30934 ft | 437 kts | 232° |
| 2026-05-06 16:19 | 49.78060 | 5.95382 | 31168 ft | 437 kts | 232° |
| 2026-05-06 16:20 | 49.76312 | 5.91605 | 31395 ft | 437 kts | 232° |
| 2026-05-06 16:20 | 49.74615 | 5.87636 | 31618 ft | 438 kts | 239° |
| 2026-05-06 16:20 | 49.73337 | 5.83418 | 31823 ft | 440 kts | 248° |
| 2026-05-06 16:20 | 49.72308 | 5.78963 | 32021 ft | 441 kts | 249° |
| 2026-05-06 16:21 | 49.71278 | 5.74495 | 32242 ft | 441 kts | 249° |
| 2026-05-06 16:21 | 49.70246 | 5.70037 | 32452 ft | 441 kts | 249° |
| 2026-05-06 16:21 | 49.69211 | 5.65589 | 32671 ft | 440 kts | 249° |
| 2026-05-06 16:21 | 49.68170 | 5.61142 | 32882 ft | 440 kts | 249° |
| 2026-05-06 16:22 | 49.67129 | 5.56696 | 33099 ft | 440 kts | 249° |
| 2026-05-06 16:22 | 49.66090 | 5.52253 | 33303 ft | 440 kts | 249° |
| 2026-05-06 16:22 | 49.65046 | 5.47813 | 33502 ft | 440 kts | 248° |
| 2026-05-06 16:22 | 49.63997 | 5.43382 | 33710 ft | 440 kts | 249° |
| 2026-05-06 16:23 | 49.62948 | 5.38947 | 33914 ft | 439 kts | 249° |
| 2026-05-06 16:23 | 49.61910 | 5.34510 | 34050 ft | 440 kts | 250° |
| 2026-05-06 16:23 | 49.60919 | 5.30038 | 34188 ft | 441 kts | 250° |
| 2026-05-06 16:23 | 49.59965 | 5.25544 | 34345 ft | 441 kts | 251° |
| 2026-05-06 16:24 | 49.59029 | 5.21049 | 34504 ft | 441 kts | 251° |
| 2026-05-06 16:24 | 49.58155 | 5.16520 | 34659 ft | 441 kts | 253° |
| 2026-05-06 16:24 | 49.57355 | 5.11955 | 34820 ft | 441 kts | 254° |
| 2026-05-06 16:24 | 49.56601 | 5.07440 | 34874 ft | 441 kts | 254° |
| 2026-05-06 16:25 | 49.55065 | 4.98312 | 34875 ft | 440 kts | 254° |
| 2026-05-06 16:25 | 49.53463 | 4.89213 | 34876 ft | 441 kts | 253° |
| 2026-05-06 16:26 | 49.51814 | 4.80118 | 34882 ft | 441 kts | 253° |
| 2026-05-06 16:26 | 49.50157 | 4.71024 | 34881 ft | 441 kts | 253° |
| 2026-05-06 16:27 | 49.48503 | 4.61914 | 34889 ft | 441 kts | 253° |
| 2026-05-06 16:27 | 49.46848 | 4.52818 | 34891 ft | 442 kts | 253° |
| 2026-05-06 16:28 | 49.45178 | 4.43734 | 34851 ft | 440 kts | 252° |
| 2026-05-06 16:28 | 49.43503 | 4.34663 | 34899 ft | 442 kts | 252° |
| 2026-05-06 16:29 | 49.41826 | 4.25579 | 34903 ft | 442 kts | 251° |
| 2026-05-06 16:29 | 49.40148 | 4.16566 | 34904 ft | 442 kts | 251° |
| 2026-05-06 16:30 | 49.38737 | 4.09026 | 34906 ft | 441 kts | 251° |
| 2026-05-06 16:30 | 49.36749 | 3.98442 | 34911 ft | 441 kts | 251° |
| 2026-05-06 16:31 | 49.35241 | 3.89305 | 34907 ft | 443 kts | 255° |
| 2026-05-06 16:31 | 49.34002 | 3.80055 | 34908 ft | 443 kts | 256° |
| 2026-05-06 16:32 | 49.32762 | 3.70803 | 34912 ft | 442 kts | 255° |
| 2026-05-06 16:32 | 49.31450 | 3.61654 | 34913 ft | 442 kts | 255° |
| 2026-05-06 16:33 | 49.30086 | 3.52453 | 34917 ft | 442 kts | 255° |
| 2026-05-06 16:34 | 49.28054 | 3.38664 | 34910 ft | 442 kts | 255° |
| 2026-05-06 16:34 | 49.26692 | 3.29466 | 34915 ft | 442 kts | 255° |
| 2026-05-06 16:35 | 49.25333 | 3.20328 | 34917 ft | 443 kts | 255° |
| 2026-05-06 16:35 | 49.23965 | 3.11126 | 34917 ft | 443 kts | 255° |
| 2026-05-06 16:36 | 49.22584 | 3.01932 | 34917 ft | 443 kts | 254° |
| 2026-05-06 16:36 | 49.21189 | 2.92765 | 34924 ft | 443 kts | 254° |
| 2026-05-06 16:37 | 49.19790 | 2.83584 | 34920 ft | 443 kts | 254° |
| 2026-05-06 16:37 | 49.18385 | 2.74418 | 34929 ft | 443 kts | 254° |
| 2026-05-06 16:38 | 49.16979 | 2.65252 | 34943 ft | 443 kts | 254° |
| 2026-05-06 16:38 | 49.15565 | 2.56090 | 34945 ft | 443 kts | 254° |
| 2026-05-06 16:39 | 49.14135 | 2.46950 | 34939 ft | 442 kts | 253° |
| 2026-05-06 16:39 | 49.12792 | 2.37790 | 34938 ft | 443 kts | 259° |
| 2026-05-06 16:40 | 49.11944 | 2.28471 | 34957 ft | 443 kts | 259° |
| 2026-05-06 16:40 | 49.11086 | 2.19150 | 34968 ft | 443 kts | 259° |
| 2026-05-06 16:41 | 49.10207 | 2.09825 | 34959 ft | 444 kts | 259° |
| 2026-05-06 16:41 | 49.08774 | 2.00808 | 34958 ft | 438 kts | 244° |
| 2026-05-06 16:42 | 49.06234 | 1.92369 | 35046 ft | 440 kts | 245° |
| 2026-05-06 16:42 | 49.04953 | 1.88133 | 34945 ft | 439 kts | 245° |
| 2026-05-06 16:42 | 49.03676 | 1.83896 | 34914 ft | 439 kts | 245° |
| 2026-05-06 16:43 | 49.01122 | 1.75414 | 34917 ft | 441 kts | 246° |
| 2026-05-06 16:43 | 48.98547 | 1.66901 | 34919 ft | 443 kts | 246° |
| 2026-05-06 16:44 | 48.95953 | 1.58389 | 34930 ft | 444 kts | 245° |
| 2026-05-06 16:44 | 48.93343 | 1.49856 | 34944 ft | 444 kts | 246° |
| 2026-05-06 16:45 | 48.90730 | 1.41342 | 34944 ft | 445 kts | 245° |
| 2026-05-06 16:45 | 48.88553 | 1.34258 | 34950 ft | 445 kts | 246° |
| 2026-05-06 16:46 | 48.85506 | 1.24351 | 34944 ft | 446 kts | 246° |
| 2026-05-06 16:46 | 48.82866 | 1.15828 | 34959 ft | 446 kts | 245° |
| 2026-05-06 16:47 | 48.80663 | 1.08741 | 34959 ft | 446 kts | 246° |
| 2026-05-06 16:47 | 48.78016 | 1.00239 | 34961 ft | 446 kts | 245° |
| 2026-05-06 16:48 | 48.75350 | 0.91730 | 34968 ft | 446 kts | 246° |
| 2026-05-06 16:48 | 48.72300 | 0.83534 | 34967 ft | 447 kts | 239° |
| 2026-05-06 16:49 | 48.69055 | 0.75506 | 34972 ft | 447 kts | 239° |
| 2026-05-06 16:49 | 48.65805 | 0.67487 | 34977 ft | 447 kts | 239° |
| 2026-05-06 16:50 | 48.62547 | 0.59480 | 34975 ft | 447 kts | 239° |
| 2026-05-06 16:50 | 48.59278 | 0.51485 | 34978 ft | 447 kts | 239° |
| 2026-05-06 16:51 | 48.56021 | 0.43554 | 34982 ft | 447 kts | 239° |
| 2026-05-06 16:51 | 48.52742 | 0.35570 | 34977 ft | 447 kts | 239° |
| 2026-05-06 16:52 | 48.49465 | 0.27596 | 34980 ft | 447 kts | 239° |
| 2026-05-06 16:52 | 48.46179 | 0.19632 | 34985 ft | 447 kts | 239° |
| 2026-05-06 16:53 | 48.42885 | 0.11670 | 34995 ft | 447 kts | 239° |
| 2026-05-06 16:53 | 48.39583 | 0.03733 | 34993 ft | 447 kts | 239° |
| 2026-05-06 16:54 | 48.36264 | -0.04190 | 34993 ft | 447 kts | 238° |
| 2026-05-06 16:54 | 48.32696 | -0.11858 | 34997 ft | 448 kts | 234° |
| 2026-05-06 16:55 | 48.28920 | -0.19240 | 34996 ft | 448 kts | 233° |
| 2026-05-06 16:55 | 48.25118 | -0.26658 | 34996 ft | 448 kts | 234° |
| 2026-05-06 16:56 | 48.21331 | -0.34092 | 34998 ft | 448 kts | 234° |
| 2026-05-06 16:56 | 48.17536 | -0.41531 | 34997 ft | 448 kts | 234° |
| 2026-05-06 16:57 | 48.13742 | -0.48950 | 34992 ft | 448 kts | 234° |
| 2026-05-06 16:57 | 48.09945 | -0.56358 | 34993 ft | 448 kts | 233° |
| 2026-05-06 16:58 | 48.06158 | -0.63696 | 34995 ft | 448 kts | 233° |
| 2026-05-06 16:58 | 48.02321 | -0.71116 | 34995 ft | 448 kts | 233° |
| 2026-05-06 16:59 | 47.98534 | -0.78430 | 34992 ft | 448 kts | 233° |
| 2026-05-06 16:59 | 47.94713 | -0.85781 | 34987 ft | 448 kts | 233° |
| 2026-05-06 17:00 | 47.90885 | -0.93119 | 34982 ft | 448 kts | 233° |
| 2026-05-06 17:00 | 47.87065 | -1.00444 | 34992 ft | 448 kts | 233° |
| 2026-05-06 17:01 | 47.83232 | -1.07760 | 34990 ft | 448 kts | 233° |
| 2026-05-06 17:01 | 47.79394 | -1.15071 | 34978 ft | 448 kts | 233° |
| 2026-05-06 17:02 | 47.75561 | -1.22360 | 34982 ft | 447 kts | 233° |
| 2026-05-06 17:02 | 47.71719 | -1.29632 | 34970 ft | 447 kts | 233° |
| 2026-05-06 17:03 | 47.67870 | -1.36895 | 34972 ft | 447 kts | 233° |
| 2026-05-06 17:03 | 47.64016 | -1.44159 | 34971 ft | 448 kts | 233° |
| 2026-05-06 17:04 | 47.60179 | -1.51360 | 34965 ft | 448 kts | 233° |
| 2026-05-06 17:04 | 47.56138 | -1.58396 | 34965 ft | 448 kts | 230° |
| 2026-05-06 17:05 | 47.51908 | -1.65190 | 34970 ft | 449 kts | 229° |
| 2026-05-06 17:05 | 47.47671 | -1.71968 | 34973 ft | 449 kts | 229° |
| 2026-05-06 17:06 | 47.43486 | -1.78810 | 34971 ft | 449 kts | 230° |
| 2026-05-06 17:06 | 47.39342 | -1.85622 | 34973 ft | 449 kts | 230° |
| 2026-05-06 17:07 | 47.35046 | -1.92303 | 34992 ft | 450 kts | 221° |
| 2026-05-06 17:07 | 47.29818 | -1.97424 | 34997 ft | 452 kts | 212° |
| 2026-05-06 17:08 | 47.24437 | -2.02210 | 34999 ft | 452 kts | 213° |
| 2026-05-06 17:08 | 47.19069 | -2.07033 | 34985 ft | 452 kts | 213° |
| 2026-05-06 17:09 | 47.13696 | -2.11838 | 34984 ft | 452 kts | 213° |
| 2026-05-06 17:09 | 47.08314 | -2.16608 | 34988 ft | 452 kts | 213° |
| 2026-05-06 17:10 | 47.02950 | -2.21348 | 34987 ft | 452 kts | 213° |
| 2026-05-06 17:10 | 46.97566 | -2.26111 | 34986 ft | 452 kts | 213° |
| 2026-05-06 17:11 | 46.92178 | -2.30876 | 34993 ft | 452 kts | 213° |
| 2026-05-06 17:11 | 46.86789 | -2.35620 | 34995 ft | 452 kts | 213° |
| 2026-05-06 17:12 | 46.81397 | -2.40350 | 34997 ft | 452 kts | 213° |
| 2026-05-06 17:12 | 46.76009 | -2.45077 | 34992 ft | 452 kts | 213° |
| 2026-05-06 17:13 | 46.70616 | -2.49798 | 34991 ft | 452 kts | 213° |
| 2026-05-06 17:13 | 46.65226 | -2.54506 | 34992 ft | 452 kts | 213° |
| 2026-05-06 17:14 | 46.59835 | -2.59208 | 34998 ft | 452 kts | 212° |
| 2026-05-06 17:14 | 46.54432 | -2.63896 | 34999 ft | 452 kts | 212° |
| 2026-05-06 17:15 | 46.49034 | -2.68568 | 34994 ft | 452 kts | 212° |
| 2026-05-06 17:15 | 46.43662 | -2.73209 | 34999 ft | 452 kts | 212° |
| 2026-05-06 17:16 | 46.38256 | -2.77873 | 35000 ft | 452 kts | 212° |
| 2026-05-06 17:16 | 46.32843 | -2.82525 | 34997 ft | 452 kts | 212° |
| 2026-05-06 17:17 | 46.27444 | -2.87183 | 34999 ft | 451 kts | 215° |
| 2026-05-06 17:17 | 46.22574 | -2.92838 | 35006 ft | 449 kts | 222° |
| 2026-05-06 17:18 | 46.17810 | -2.98668 | 35001 ft | 449 kts | 222° |
| 2026-05-06 17:18 | 46.13026 | -3.04476 | 35007 ft | 449 kts | 222° |
| 2026-05-06 17:19 | 46.08254 | -3.10278 | 35007 ft | 449 kts | 222° |
| 2026-05-06 17:19 | 46.03473 | -3.16074 | 35011 ft | 449 kts | 222° |
| 2026-05-06 17:20 | 45.98723 | -3.21818 | 35018 ft | 449 kts | 222° |
| 2026-05-06 17:20 | 45.93938 | -3.27601 | 35020 ft | 448 kts | 222° |
| 2026-05-06 17:21 | 45.89161 | -3.33365 | 35019 ft | 448 kts | 222° |
| 2026-05-06 17:21 | 45.84375 | -3.39112 | 35020 ft | 448 kts | 221° |
| 2026-05-06 17:22 | 45.79618 | -3.44817 | 35018 ft | 448 kts | 221° |
| 2026-05-06 17:22 | 45.74827 | -3.50547 | 35023 ft | 448 kts | 221° |
| 2026-05-06 17:23 | 45.70030 | -3.56257 | 35022 ft | 448 kts | 221° |
| 2026-05-06 17:23 | 45.65249 | -3.61943 | 35029 ft | 447 kts | 221° |
| 2026-05-06 17:24 | 45.60480 | -3.67627 | 35029 ft | 446 kts | 221° |
| 2026-05-06 17:24 | 45.55705 | -3.73295 | 35028 ft | 446 kts | 221° |
| 2026-05-06 17:25 | 45.50915 | -3.78932 | 35029 ft | 446 kts | 221° |
| 2026-05-06 17:25 | 45.46142 | -3.84570 | 35031 ft | 446 kts | 221° |
| 2026-05-06 17:26 | 45.41367 | -3.90198 | 35031 ft | 445 kts | 221° |
| 2026-05-06 17:26 | 45.36592 | -3.95798 | 35037 ft | 444 kts | 221° |
| 2026-05-06 17:27 | 45.31830 | -4.01373 | 35037 ft | 443 kts | 221° |
| 2026-05-06 17:27 | 45.27112 | -4.06903 | 35027 ft | 442 kts | 221° |
| 2026-05-06 17:28 | 45.22350 | -4.12456 | 35027 ft | 442 kts | 221° |
| 2026-05-06 17:28 | 45.17589 | -4.17987 | 35029 ft | 442 kts | 221° |
| 2026-05-06 17:29 | 45.12825 | -4.23527 | 35029 ft | 442 kts | 221° |
| 2026-05-06 17:29 | 45.08055 | -4.29056 | 35023 ft | 443 kts | 221° |
| 2026-05-06 17:30 | 45.03282 | -4.34572 | 35028 ft | 443 kts | 221° |
| 2026-05-06 17:30 | 44.98529 | -4.40054 | 35030 ft | 443 kts | 221° |
| 2026-05-06 17:31 | 44.93711 | -4.45592 | 35031 ft | 444 kts | 221° |
| 2026-05-06 17:31 | 44.88951 | -4.51049 | 35023 ft | 444 kts | 221° |
| 2026-05-06 17:32 | 44.84161 | -4.56543 | 35028 ft | 444 kts | 221° |
| 2026-05-06 17:32 | 44.79367 | -4.62024 | 35038 ft | 443 kts | 220° |
| 2026-05-06 17:33 | 44.75355 | -4.66596 | 35041 ft | 442 kts | 220° |
| 2026-05-06 17:33 | 44.70603 | -4.72015 | 35040 ft | 442 kts | 220° |
| 2026-05-06 17:34 | 44.65828 | -4.77451 | 35040 ft | 441 kts | 220° |
| 2026-05-06 17:34 | 44.61051 | -4.82874 | 35039 ft | 441 kts | 220° |
| 2026-05-06 17:35 | 44.56274 | -4.88274 | 35035 ft | 441 kts | 220° |
| 2026-05-06 17:35 | 44.51492 | -4.93663 | 35035 ft | 441 kts | 220° |
| 2026-05-06 17:36 | 44.43765 | -5.00665 | 35034 ft | 441 kts | 213° |
| 2026-05-06 17:36 | 44.38597 | -5.05178 | 35032 ft | 440 kts | 213° |
| 2026-05-06 17:37 | 44.33411 | -5.09713 | 35034 ft | 439 kts | 213° |
| 2026-05-06 17:37 | 44.28219 | -5.14236 | 35027 ft | 439 kts | 213° |
| 2026-05-06 17:38 | 44.23033 | -5.18733 | 35029 ft | 439 kts | 213° |
| 2026-05-06 17:38 | 44.17837 | -5.23226 | 35029 ft | 439 kts | 213° |
| 2026-05-06 17:39 | 44.12648 | -5.27707 | 35030 ft | 439 kts | 213° |
| 2026-05-06 17:39 | 44.07457 | -5.32187 | 35028 ft | 439 kts | 213° |
| 2026-05-06 17:40 | 44.02269 | -5.36660 | 35030 ft | 439 kts | 213° |
| 2026-05-06 17:40 | 43.97077 | -5.41120 | 35030 ft | 438 kts | 213° |
| 2026-05-06 17:41 | 43.91890 | -5.45570 | 35032 ft | 438 kts | 213° |
| 2026-05-06 17:41 | 43.86733 | -5.49975 | 35024 ft | 438 kts | 213° |
| 2026-05-06 17:42 | 43.81552 | -5.54400 | 35029 ft | 437 kts | 213° |
| 2026-05-06 17:42 | 43.76368 | -5.58817 | 35033 ft | 437 kts | 213° |
| 2026-05-06 17:43 | 43.71184 | -5.63224 | 35033 ft | 437 kts | 213° |
| 2026-05-06 17:43 | 43.65998 | -5.67621 | 35027 ft | 437 kts | 213° |
| 2026-05-06 17:44 | 43.60815 | -5.72013 | 35036 ft | 437 kts | 213° |
| 2026-05-06 17:44 | 43.55634 | -5.76393 | 35045 ft | 437 kts | 213° |
| 2026-05-06 17:45 | 43.50447 | -5.80760 | 35049 ft | 437 kts | 213° |
| 2026-05-06 17:45 | 43.45264 | -5.85122 | 35047 ft | 436 kts | 213° |
| 2026-05-06 17:46 | 43.40120 | -5.89449 | 35046 ft | 436 kts | 213° |
| 2026-05-06 17:46 | 43.34944 | -5.93793 | 35043 ft | 436 kts | 213° |
| 2026-05-06 17:47 | 43.29764 | -5.98127 | 35039 ft | 436 kts | 213° |
| 2026-05-06 17:47 | 43.24579 | -6.02450 | 35030 ft | 435 kts | 213° |
| 2026-05-06 17:48 | 43.19402 | -6.06754 | 35036 ft | 435 kts | 213° |
| 2026-05-06 17:48 | 43.14234 | -6.11054 | 35016 ft | 434 kts | 213° |
| 2026-05-06 17:49 | 43.09071 | -6.15340 | 35001 ft | 434 kts | 213° |
| 2026-05-06 17:49 | 43.03909 | -6.19610 | 35007 ft | 433 kts | 213° |
| 2026-05-06 17:50 | 42.98787 | -6.23836 | 34988 ft | 432 kts | 213° |
| 2026-05-06 17:50 | 42.93637 | -6.28092 | 34985 ft | 432 kts | 213° |
| 2026-05-06 17:51 | 42.88492 | -6.32331 | 34968 ft | 432 kts | 213° |
| 2026-05-06 17:51 | 42.83343 | -6.36558 | 34969 ft | 432 kts | 213° |
| 2026-05-06 17:52 | 42.78202 | -6.40778 | 34966 ft | 431 kts | 213° |
| 2026-05-06 17:52 | 42.73095 | -6.44962 | 34963 ft | 431 kts | 213° |
| 2026-05-06 17:53 | 42.67962 | -6.49157 | 34975 ft | 430 kts | 213° |
| 2026-05-06 17:53 | 42.62827 | -6.53343 | 34968 ft | 430 kts | 213° |
| 2026-05-06 17:54 | 42.57693 | -6.57519 | 34958 ft | 430 kts | 212° |
| 2026-05-06 17:54 | 42.52552 | -6.61686 | 34952 ft | 430 kts | 212° |
| 2026-05-06 17:55 | 42.47414 | -6.65845 | 34952 ft | 430 kts | 212° |
| 2026-05-06 17:55 | 42.42288 | -6.69996 | 34960 ft | 430 kts | 213° |
| 2026-05-06 17:56 | 42.37154 | -6.74152 | 34963 ft | 429 kts | 212° |
| 2026-05-06 17:56 | 42.32058 | -6.78260 | 34952 ft | 429 kts | 212° |
| 2026-05-06 17:57 | 42.26903 | -6.82395 | 34964 ft | 428 kts | 212° |
| 2026-05-06 17:57 | 42.21822 | -6.86466 | 34965 ft | 428 kts | 212° |
| 2026-05-06 17:58 | 42.16703 | -6.90572 | 34961 ft | 427 kts | 212° |
| 2026-05-06 17:58 | 42.11588 | -6.94665 | 34950 ft | 427 kts | 212° |
| 2026-05-06 17:59 | 42.06474 | -6.98751 | 34947 ft | 427 kts | 212° |
| 2026-05-06 17:59 | 42.01358 | -7.02829 | 34957 ft | 427 kts | 212° |
| 2026-05-06 18:00 | 41.96245 | -7.06891 | 34940 ft | 427 kts | 212° |
| 2026-05-06 18:00 | 41.91162 | -7.10930 | 34939 ft | 427 kts | 212° |
| 2026-05-06 18:01 | 41.86043 | -7.14985 | 34937 ft | 426 kts | 212° |
| 2026-05-06 18:01 | 41.80933 | -7.19022 | 34930 ft | 427 kts | 212° |
| 2026-05-06 18:02 | 41.75810 | -7.23061 | 34923 ft | 426 kts | 212° |
| 2026-05-06 18:02 | 41.70691 | -7.27073 | 34921 ft | 426 kts | 212° |
| 2026-05-06 18:03 | 41.65553 | -7.31059 | 34925 ft | 426 kts | 211° |
| 2026-05-06 18:03 | 41.60418 | -7.35027 | 34916 ft | 426 kts | 211° |
| 2026-05-06 18:04 | 41.55285 | -7.39003 | 34923 ft | 426 kts | 211° |
| 2026-05-06 18:04 | 41.50183 | -7.42955 | 34917 ft | 426 kts | 212° |
| 2026-05-06 18:05 | 41.45050 | -7.46921 | 34930 ft | 426 kts | 212° |
| 2026-05-06 18:05 | 41.39910 | -7.50876 | 34933 ft | 426 kts | 212° |
| 2026-05-06 18:06 | 41.34773 | -7.54820 | 34928 ft | 426 kts | 212° |
| 2026-05-06 18:06 | 41.29636 | -7.58766 | 34927 ft | 426 kts | 212° |
| 2026-05-06 18:07 | 41.24503 | -7.62700 | 34946 ft | 426 kts | 212° |
| 2026-05-06 18:07 | 41.19362 | -7.66626 | 34946 ft | 426 kts | 212° |
| 2026-05-06 18:08 | 41.14228 | -7.70537 | 34941 ft | 425 kts | 212° |
| 2026-05-06 18:08 | 41.09100 | -7.74440 | 34940 ft | 425 kts | 212° |
| 2026-05-06 18:09 | 41.03979 | -7.78332 | 34935 ft | 424 kts | 212° |
| 2026-05-06 18:09 | 40.98862 | -7.82211 | 34938 ft | 423 kts | 212° |
| 2026-05-06 18:10 | 40.93762 | -7.86080 | 34936 ft | 423 kts | 212° |
| 2026-05-06 18:10 | 40.88663 | -7.89946 | 34943 ft | 422 kts | 212° |
| 2026-05-06 18:11 | 40.84426 | -7.93146 | 34937 ft | 422 kts | 212° |
| 2026-05-06 18:11 | 40.78463 | -7.97631 | 34940 ft | 421 kts | 212° |
| 2026-05-06 18:12 | 40.73409 | -8.01431 | 34939 ft | 421 kts | 212° |
| 2026-05-06 18:12 | 40.68320 | -8.05258 | 34951 ft | 421 kts | 212° |
| 2026-05-06 18:13 | 40.63237 | -8.09064 | 34947 ft | 420 kts | 212° |
| 2026-05-06 18:13 | 40.58156 | -8.12865 | 34935 ft | 419 kts | 212° |
| 2026-05-06 18:14 | 40.53082 | -8.16654 | 34943 ft | 419 kts | 212° |
| 2026-05-06 18:14 | 40.48004 | -8.20440 | 34944 ft | 420 kts | 212° |
| 2026-05-06 18:15 | 40.42908 | -8.24236 | 34227 ft | 424 kts | 212° |
| 2026-05-06 18:15 | 40.40348 | -8.26140 | 33252 ft | 422 kts | 212° |
| 2026-05-06 18:15 | 40.37799 | -8.28034 | 32103 ft | 422 kts | 211° |
| 2026-05-06 18:16 | 40.35232 | -8.29942 | 30997 ft | 423 kts | 211° |
| 2026-05-06 18:16 | 40.32720 | -8.31803 | 30664 ft | 407 kts | 211° |
| 2026-05-06 18:16 | 40.30291 | -8.33594 | 30211 ft | 394 kts | 210° |
| 2026-05-06 18:16 | 40.27961 | -8.35311 | 29732 ft | 383 kts | 210° |
| 2026-05-06 18:17 | 40.25675 | -8.37001 | 29264 ft | 371 kts | 210° |
| 2026-05-06 18:17 | 40.23451 | -8.38647 | 28830 ft | 365 kts | 210° |
| 2026-05-06 18:17 | 40.21234 | -8.40286 | 28394 ft | 366 kts | 210° |
| 2026-05-06 18:17 | 40.19017 | -8.41921 | 27958 ft | 365 kts | 210° |
| 2026-05-06 18:18 | 40.16809 | -8.43545 | 27532 ft | 364 kts | 210° |
| 2026-05-06 18:18 | 40.14615 | -8.45159 | 27101 ft | 361 kts | 210° |
| 2026-05-06 18:18 | 40.12433 | -8.46766 | 26680 ft | 358 kts | 210° |
| 2026-05-06 18:18 | 40.10268 | -8.48359 | 26266 ft | 357 kts | 210° |
| 2026-05-06 18:19 | 40.08835 | -8.49413 | 25994 ft | 356 kts | 210° |
| 2026-05-06 18:19 | 40.06684 | -8.50993 | 25599 ft | 354 kts | 210° |
| 2026-05-06 18:19 | 40.04481 | -8.52414 | 25377 ft | 352 kts | 206° |
| 2026-05-06 18:19 | 40.02253 | -8.53752 | 25302 ft | 353 kts | 205° |
| 2026-05-06 18:20 | 40.00011 | -8.55064 | 25229 ft | 353 kts | 205° |
| 2026-05-06 18:20 | 39.97763 | -8.56365 | 25150 ft | 353 kts | 205° |
| 2026-05-06 18:20 | 39.95520 | -8.57663 | 25077 ft | 352 kts | 205° |
| 2026-05-06 18:20 | 39.93282 | -8.58969 | 24992 ft | 354 kts | 205° |
| 2026-05-06 18:21 | 39.90977 | -8.60324 | 24709 ft | 369 kts | 205° |
| 2026-05-06 18:21 | 39.88621 | -8.61712 | 24419 ft | 373 kts | 205° |
| 2026-05-06 18:21 | 39.86266 | -8.63101 | 24139 ft | 372 kts | 205° |
| 2026-05-06 18:21 | 39.83901 | -8.64493 | 23818 ft | 373 kts | 205° |
| 2026-05-06 18:22 | 39.81543 | -8.65877 | 23437 ft | 371 kts | 205° |
| 2026-05-06 18:22 | 39.79235 | -8.67226 | 22964 ft | 367 kts | 205° |
| 2026-05-06 18:22 | 39.76910 | -8.68583 | 22496 ft | 365 kts | 205° |
| 2026-05-06 18:22 | 39.74596 | -8.69931 | 22038 ft | 363 kts | 205° |
| 2026-05-06 18:23 | 39.72305 | -8.71267 | 21592 ft | 359 kts | 205° |
| 2026-05-06 18:23 | 39.70035 | -8.72594 | 21143 ft | 357 kts | 206° |
| 2026-05-06 18:23 | 39.67775 | -8.73917 | 20707 ft | 355 kts | 205° |
| 2026-05-06 18:23 | 39.65529 | -8.75226 | 20272 ft | 352 kts | 205° |
| 2026-05-06 18:24 | 39.63296 | -8.76527 | 19853 ft | 349 kts | 205° |
| 2026-05-06 18:24 | 39.61094 | -8.77811 | 19429 ft | 347 kts | 205° |
| 2026-05-06 18:24 | 39.58895 | -8.79092 | 19014 ft | 347 kts | 206° |
| 2026-05-06 18:24 | 39.56697 | -8.80368 | 18596 ft | 344 kts | 206° |
| 2026-05-06 18:25 | 39.54525 | -8.81628 | 18192 ft | 340 kts | 205° |
| 2026-05-06 18:25 | 39.52369 | -8.82879 | 17729 ft | 338 kts | 205° |
| 2026-05-06 18:25 | 39.50218 | -8.84127 | 17271 ft | 340 kts | 205° |
| 2026-05-06 18:25 | 39.48073 | -8.85373 | 16820 ft | 337 kts | 206° |
| 2026-05-06 18:26 | 39.45949 | -8.86606 | 16375 ft | 332 kts | 205° |
| 2026-05-06 18:26 | 39.43844 | -8.87826 | 15944 ft | 330 kts | 205° |
| 2026-05-06 18:26 | 39.41741 | -8.89044 | 15505 ft | 331 kts | 205° |
| 2026-05-06 18:26 | 39.39646 | -8.90257 | 15082 ft | 328 kts | 206° |
| 2026-05-06 18:27 | 39.37596 | -8.91445 | 14657 ft | 325 kts | 206° |
| 2026-05-06 18:27 | 39.35529 | -8.92642 | 14249 ft | 326 kts | 206° |
| 2026-05-06 18:27 | 39.33453 | -8.93843 | 13848 ft | 328 kts | 205° |
| 2026-05-06 18:27 | 39.31377 | -8.95039 | 13417 ft | 325 kts | 205° |
| 2026-05-06 18:28 | 39.29326 | -8.96220 | 12953 ft | 322 kts | 206° |
| 2026-05-06 18:28 | 39.27285 | -8.97396 | 12508 ft | 321 kts | 206° |
| 2026-05-06 18:28 | 39.25246 | -8.98570 | 12067 ft | 321 kts | 204° |
| 2026-05-06 18:28 | 39.23212 | -8.99740 | 11634 ft | 318 kts | 205° |
| 2026-05-06 18:29 | 39.21195 | -9.00901 | 11202 ft | 316 kts | 205° |
| 2026-05-06 18:29 | 39.19192 | -9.02056 | 10773 ft | 315 kts | 204° |
| 2026-05-06 18:29 | 39.17199 | -9.03206 | 10326 ft | 313 kts | 204° |
| 2026-05-06 18:29 | 39.15210 | -9.04348 | 9917 ft | 309 kts | 204° |
| 2026-05-06 18:30 | 39.13289 | -9.05445 | 9790 ft | 295 kts | 204° |
| 2026-05-06 18:30 | 39.11461 | -9.06489 | 9456 ft | 282 kts | 204° |
| 2026-05-06 18:30 | 39.09663 | -9.07520 | 9027 ft | 281 kts | 204° |
| 2026-05-06 18:30 | 39.07907 | -9.08529 | 8625 ft | 280 kts | 204° |
| 2026-05-06 18:31 | 39.06107 | -9.09559 | 8193 ft | 279 kts | 205° |
| 2026-05-06 18:31 | 39.04352 | -9.10566 | 7782 ft | 279 kts | 205° |
| 2026-05-06 18:31 | 39.02579 | -9.11584 | 7388 ft | 278 kts | 205° |
| 2026-05-06 18:31 | 39.00811 | -9.12598 | 7017 ft | 277 kts | 204° |
| 2026-05-06 18:32 | 38.99053 | -9.13605 | 6627 ft | 276 kts | 204° |
| 2026-05-06 18:32 | 38.97307 | -9.14602 | 6281 ft | 273 kts | 204° |
| 2026-05-06 18:32 | 38.95571 | -9.15592 | 5882 ft | 273 kts | 204° |
| 2026-05-06 18:32 | 38.93836 | -9.16582 | 5454 ft | 273 kts | 205° |
| 2026-05-06 18:33 | 38.92100 | -9.17571 | 5040 ft | 273 kts | 205° |
| 2026-05-06 18:33 | 38.90362 | -9.18559 | 4641 ft | 273 kts | 205° |
| 2026-05-06 18:33 | 38.88620 | -9.19547 | 4213 ft | 273 kts | 205° |
| 2026-05-06 18:33 | 38.86886 | -9.20531 | 4018 ft | 273 kts | 206° |
| 2026-05-06 18:34 | 38.85138 | -9.21527 | 4018 ft | 275 kts | 207° |
| 2026-05-06 18:34 | 38.83433 | -9.22497 | 4017 ft | 261 kts | 207° |
| 2026-05-06 18:34 | 38.81826 | -9.23410 | 4028 ft | 243 kts | 206° |
| 2026-05-06 18:34 | 38.80331 | -9.24258 | 4024 ft | 228 kts | 206° |
| 2026-05-06 18:35 | 38.78906 | -9.25067 | 4022 ft | 227 kts | 207° |
| 2026-05-06 18:35 | 38.77458 | -9.25890 | 4028 ft | 228 kts | 206° |
| 2026-05-06 18:35 | 38.76014 | -9.26711 | 4007 ft | 228 kts | 208° |
| 2026-05-06 18:35 | 38.74561 | -9.27538 | 4011 ft | 231 kts | 208° |
| 2026-05-06 18:36 | 38.73086 | -9.28378 | 4026 ft | 231 kts | 207° |
| 2026-05-06 18:36 | 38.71607 | -9.29218 | 4012 ft | 233 kts | 205° |
| 2026-05-06 18:36 | 38.70133 | -9.30053 | 4007 ft | 225 kts | 206° |
| 2026-05-06 18:36 | 38.68778 | -9.30815 | 4019 ft | 204 kts | 207° |
| 2026-05-06 18:37 | 38.67489 | -9.31543 | 4008 ft | 201 kts | 206° |
| 2026-05-06 18:37 | 38.66196 | -9.32214 | 4024 ft | 203 kts | 197° |
| 2026-05-06 18:37 | 38.64799 | -9.32112 | 3735 ft | 206 kts | 160° |
| 2026-05-06 18:37 | 38.63762 | -9.31034 | 3570 ft | 186 kts | 125° |
| 2026-05-06 18:38 | 38.63049 | -9.29729 | 3423 ft | 169 kts | 120° |
| 2026-05-06 18:38 | 38.62426 | -9.28499 | 3183 ft | 166 kts | 120° |
| 2026-05-06 18:38 | 38.61824 | -9.27252 | 3040 ft | 163 kts | 112° |
| 2026-05-06 18:38 | 38.61614 | -9.25891 | 3023 ft | 154 kts | 72° |
| 2026-05-06 18:39 | 38.61909 | -9.24600 | 3021 ft | 150 kts | 61° |
| 2026-05-06 18:39 | 38.62311 | -9.23377 | 3016 ft | 149 kts | 60° |
| 2026-05-06 18:39 | 38.62746 | -9.22189 | 3016 ft | 145 kts | 46° |
| 2026-05-06 18:40 | 38.64381 | -9.20930 | 2915 ft | 139 kts | 16° |
| 2026-05-06 18:40 | 38.65281 | -9.20451 | 2770 ft | 139 kts | 16° |
| 2026-05-06 18:40 | 38.66176 | -9.19978 | 2573 ft | 139 kts | 17° |
| 2026-05-06 18:40 | 38.67057 | -9.19509 | 2421 ft | 139 kts | 18° |
| 2026-05-06 18:41 | 38.67962 | -9.19028 | 2239 ft | 139 kts | 17° |
| 2026-05-06 18:41 | 38.68837 | -9.18561 | 1993 ft | 137 kts | 17° |
| 2026-05-06 18:41 | 38.69718 | -9.18086 | 1821 ft | 137 kts | 17° |
| 2026-05-06 18:41 | 38.70595 | -9.17617 | 1665 ft | 135 kts | 16° |
| 2026-05-06 18:42 | 38.71476 | -9.17152 | 1464 ft | 138 kts | 17° |
| 2026-05-06 18:42 | 38.72349 | -9.16682 | 1300 ft | 135 kts | 15° |
| 2026-05-06 18:42 | 38.73220 | -9.16219 | 1118 ft | 135 kts | 16° |
| 2026-05-06 18:42 | 38.74113 | -9.15743 | 873 ft | 137 kts | 15° |
| 2026-05-06 18:43 | 38.74992 | -9.15267 | 699 ft | 138 kts | 19° |
| 2026-05-06 18:43 | 38.75901 | -9.14776 | 524 ft | 144 kts | 19° |
| 2026-05-06 18:43 | 38.76818 | -9.14302 | 348 ft | 139 kts | 19° |
| 2026-05-06 18:43 | 38.77608 | -9.13901 | 351 ft | 101 kts | 24° |
| 2026-05-06 18:44 | 38.78090 | -9.13615 | 349 ft | 52 kts | 22° |
| 2026-05-06 18:44 | 38.78293 | -9.13462 | 354 ft | 28 kts | 46° |
| 2026-05-06 18:44 | 38.78374 | -9.13338 | 354 ft | 12 kts | 68° |
| 2026-05-06 18:44 | 38.78353 | -9.13273 | 354 ft | 5 kts | 150° |
| 2026-05-06 18:45 | 38.78349 | -9.13271 | 355 ft | 0 kts | 156° |
| 2026-05-06 18:45 | 38.78348 | -9.13271 | 355 ft | 1 kts | 157° |
| 2026-05-06 18:46 | 38.78302 | -9.13272 | 347 ft | 13 kts | 199° |
| 2026-05-06 18:46 | 38.78196 | -9.13326 | 350 ft | 17 kts | 199° |
| 2026-05-06 18:46 | 38.78092 | -9.13379 | 352 ft | 17 kts | 203° |
| 2026-05-06 18:46 | 38.78036 | -9.13409 | 353 ft | 2 kts | 202° |
| 2026-05-06 18:47 | 38.77979 | -9.13440 | 355 ft | 15 kts | 203° |
| 2026-05-06 18:47 | 38.77904 | -9.13482 | 352 ft | 11 kts | 203° |
| 2026-05-06 18:47 | 38.77846 | -9.13514 | 352 ft | 0 kts | 203° |
| 2026-05-06 18:47 | 38.77845 | -9.13514 | 352 ft | 0 kts | 203° |
| 2026-05-06 18:48 | 38.77823 | -9.13527 | 352 ft | 9 kts | 203° |
| 2026-05-06 18:48 | 38.77752 | -9.13567 | 354 ft | 12 kts | 205° |
| 2026-05-06 18:49 | 38.77668 | -9.13600 | 349 ft | 14 kts | 178° |
| 2026-05-06 18:49 | 38.77569 | -9.13576 | 346 ft | 15 kts | 168° |
| 2026-05-06 18:49 | 38.77464 | -9.13547 | 347 ft | 16 kts | 168° |
| 2026-05-06 18:49 | 38.77351 | -9.13516 | 347 ft | 17 kts | 169° |
| 2026-05-06 18:50 | 38.77229 | -9.13483 | 351 ft | 19 kts | 168° |
| 2026-05-06 18:50 | 38.77099 | -9.13447 | 351 ft | 20 kts | 168° |
| 2026-05-06 18:50 | 38.76961 | -9.13411 | 347 ft | 21 kts | 168° |
| 2026-05-06 18:50 | 38.76828 | -9.13377 | 347 ft | 18 kts | 168° |
| 2026-05-06 18:51 | 38.76734 | -9.13398 | 349 ft | 12 kts | 212° |
| 2026-05-06 18:51 | 38.76663 | -9.13454 | 353 ft | 12 kts | 213° |
| 2026-05-06 18:51 | 38.76584 | -9.13468 | 349 ft | 11 kts | 165° |
| 2026-05-06 18:51 | 38.76556 | -9.13449 | 356 ft | 3 kts | 119° |
| 2026-05-06 18:52 | 38.76559 | -9.13419 | 349 ft | 4 kts | 77° |
| 2026-05-06 18:52 | 38.76562 | -9.13405 | 349 ft | 1 kts | 73° |
| 2026-05-06 18:52 | 38.76565 | -9.13392 | 352 ft | 0 kts | 75° |